Amity, Oregon
Current Conditions -  °F | °C
As of 10:53 PM on Saturday 25 Oct 2014 (Local Time) from KMMV Reporting Station
Light Rain Light Rain  
Wind Chill: 52°   Ceiling: 5000
Heat Index: 52°   Visibility: 10mi
Dew Point: 47°   Wind: 10mph
Humidity: 83%   Direction: 200°SSW
Pressure: 29.91"   Gusts: NA
Location:  45.12°N, 123.21°W
Report Text: KMMV 260553Z AUTO 20009KT 10SM -RA FEW037 BKN050 OVC080 11/08 A2991 RMK AO2 RAB23 SLP127 P0002 60006 T01110083 10144 20106 53035
Loading
Personal Weather Stations






























Interactive Weather Map New forecast layout! Learn more

10-Day Weather Forecast

Advertisements
Track Severe Weather on mobile